createdAt,value
2022-10-28T00:01:14.545Z,92810.50
2022-10-28T00:03:45.592Z,92807.56
2022-10-28T00:06:15.296Z,92808.94
2022-10-28T00:08:41.890Z,92801.53
2022-10-28T00:11:10.304Z,92813.69
2022-10-28T00:13:37.028Z,92804.28
2022-10-28T00:16:08.572Z,92803.97
2022-10-28T00:18:35.212Z,92800.00
2022-10-28T00:21:06.300Z,92804.47
2022-10-28T00:23:33.158Z,92798.56
2022-10-28T00:26:15.648Z,92808.53
2022-10-28T00:28:53.308Z,92792.28
2022-10-28T00:31:21.104Z,92799.78
2022-10-28T00:33:47.796Z,92796.34
2022-10-28T00:36:22.244Z,92797.66
2022-10-28T00:38:50.061Z,92794.28
2022-10-28T00:41:31.610Z,92785.69
2022-10-28T00:44:04.059Z,92789.03
2022-10-28T00:46:41.406Z,92786.50
2022-10-28T00:49:20.941Z,92784.38
2022-10-28T00:51:49.388Z,92782.59
2022-10-28T00:54:16.503Z,92790.41
2022-10-28T00:56:44.582Z,92786.97
2022-10-28T00:59:21.391Z,92783.22
2022-10-28T01:01:48.109Z,92783.91
2022-10-28T01:04:14.859Z,92785.31
2022-10-28T01:06:41.468Z,92780.38
2022-10-28T01:09:08.136Z,92780.38
2022-10-28T01:11:52.846Z,92776.69
2022-10-28T01:14:44.727Z,92781.97
2022-10-28T01:17:33.016Z,92783.97
2022-10-28T01:20:05.467Z,92785.50
2022-10-28T01:22:50.614Z,92792.28
2022-10-28T01:25:23.178Z,92787.97
2022-10-28T01:28:25.141Z,92783.38
2022-10-28T01:30:57.603Z,92793.31
2022-10-28T01:33:30.995Z,92784.03
2022-10-28T01:36:01.825Z,92782.94
2022-10-28T01:38:33.032Z,92777.72
2022-10-28T01:41:15.192Z,92785.28
2022-10-28T01:44:00.208Z,92783.94
2022-10-28T01:46:29.323Z,92780.22
2022-10-28T01:48:58.692Z,92786.53
2022-10-28T01:51:37.370Z,92790.03
2022-10-28T01:54:05.396Z,92793.31
2022-10-28T01:56:34.764Z,92786.06
2022-10-28T01:59:01.382Z,92792.50
2022-10-28T02:01:29.170Z,92795.56
2022-10-28T02:03:55.919Z,92798.47
2022-10-28T02:06:24.399Z,92801.84
2022-10-28T02:08:59.887Z,92800.00
2022-10-28T02:11:49.415Z,92797.44
2022-10-28T02:14:18.778Z,92804.06
2022-10-28T02:16:50.067Z,92800.81
2022-10-28T02:19:41.316Z,92795.59
2022-10-28T02:22:22.248Z,92802.06
2022-10-28T02:25:02.859Z,92803.66
2022-10-28T02:27:31.548Z,92800.84
2022-10-28T02:30:08.661Z,92801.44
2022-10-28T02:32:38.881Z,92791.81
2022-10-28T02:35:07.992Z,92806.38
2022-10-28T02:37:34.680Z,92797.91
2022-10-28T02:40:03.902Z,92804.78
2022-10-28T02:42:33.239Z,92794.38
2022-10-28T02:45:04.345Z,92796.09
2022-10-28T02:47:32.721Z,92802.06
2022-10-28T02:50:01.454Z,92797.38
2022-10-28T02:52:28.825Z,92798.91
2022-10-28T02:54:57.086Z,92796.63
2022-10-28T02:57:34.272Z,92795.75
2022-10-28T03:00:03.405Z,92792.16
2022-10-28T03:02:30.011Z,92793.66
2022-10-28T03:04:56.576Z,92798.25
2022-10-28T03:07:23.271Z,92793.97
2022-10-28T03:09:50.093Z,92802.22
2022-10-28T03:12:16.776Z,92792.06
2022-10-28T03:14:43.361Z,92791.94
2022-10-28T03:17:09.943Z,92794.41
2022-10-28T03:19:36.601Z,92794.53
2022-10-28T03:22:03.252Z,92799.50
2022-10-28T03:24:29.872Z,92794.75
2022-10-28T03:26:56.439Z,92802.66
2022-10-28T03:29:23.151Z,92798.03
2022-10-28T03:31:49.762Z,92795.66
2022-10-28T03:34:16.444Z,92800.56
2022-10-28T03:36:43.019Z,92809.41
2022-10-28T03:39:09.682Z,92801.13
2022-10-28T03:41:36.329Z,92796.75
2022-10-28T03:44:02.943Z,92796.72
2022-10-28T03:46:32.250Z,92795.69
2022-10-28T03:49:01.743Z,92797.47
2022-10-28T03:51:28.396Z,92791.03
2022-10-28T03:53:55.011Z,92798.53
2022-10-28T03:56:22.084Z,92791.78
2022-10-28T03:58:48.992Z,92795.28
2022-10-28T04:01:15.933Z,92796.44
2022-10-28T04:03:42.601Z,92804.44
2022-10-28T04:06:10.180Z,92801.28
2022-10-28T04:08:37.220Z,92799.25
2022-10-28T04:11:04.034Z,92790.72
2022-10-28T04:13:30.761Z,92796.22
2022-10-28T04:15:57.666Z,92791.91
2022-10-28T04:18:24.315Z,92796.78
2022-10-28T04:20:50.889Z,92802.34
2022-10-28T04:23:18.607Z,92801.44
2022-10-28T04:25:45.278Z,92807.94
2022-10-28T04:28:11.879Z,92801.75
2022-10-28T04:30:38.539Z,92792.50
2022-10-28T04:33:05.199Z,92798.81
2022-10-28T04:35:31.808Z,92804.00
2022-10-28T04:37:58.502Z,92796.22
2022-10-28T04:40:25.207Z,92799.63
2022-10-28T04:42:51.953Z,92801.22
2022-10-28T04:45:18.895Z,92805.78
2022-10-28T04:47:45.497Z,92802.78
2022-10-28T04:50:12.136Z,92805.16
2022-10-28T04:52:38.806Z,92796.13
2022-10-28T04:55:05.860Z,92798.84
2022-10-28T04:57:33.035Z,92795.84
2022-10-28T04:59:59.741Z,92800.59
2022-10-28T05:02:26.403Z,92799.13
2022-10-28T05:04:53.107Z,92803.88
2022-10-28T05:07:22.704Z,92804.19
2022-10-28T05:09:50.318Z,92804.28
2022-10-28T05:12:17.009Z,92796.75
2022-10-28T05:14:43.610Z,92803.16
2022-10-28T05:17:10.672Z,92807.81
2022-10-28T05:19:37.289Z,92812.84
2022-10-28T05:22:04.057Z,92817.63
2022-10-28T05:24:30.685Z,92815.81
2022-10-28T05:26:59.497Z,92819.97
2022-10-28T05:29:29.692Z,92823.63
2022-10-28T05:31:59.148Z,92821.09
2022-10-28T05:34:25.861Z,92829.75
2022-10-28T05:36:52.423Z,92827.69
2022-10-28T05:39:19.156Z,92821.72
2022-10-28T05:41:45.835Z,92821.91
2022-10-28T05:44:12.484Z,92819.44
2022-10-28T05:46:39.055Z,92829.72
2022-10-28T05:49:05.795Z,92834.91
2022-10-28T05:51:32.371Z,92826.91
2022-10-28T05:53:59.027Z,92843.59
2022-10-28T05:56:25.723Z,92840.09
2022-10-28T05:58:52.305Z,92844.97
2022-10-28T06:01:18.955Z,92841.47
2022-10-28T06:03:45.600Z,92843.97
2022-10-28T06:06:12.177Z,92840.56
2022-10-28T06:08:38.781Z,92842.63
2022-10-28T06:11:03.968Z,92841.91
2022-10-28T06:13:30.770Z,92847.34
2022-10-28T06:15:57.432Z,92845.97
2022-10-28T06:18:24.146Z,92850.81
2022-10-28T06:20:54.677Z,92851.25
2022-10-28T06:23:21.864Z,92851.44
2022-10-28T06:25:48.643Z,92856.81
2022-10-28T06:28:15.396Z,92851.88
2022-10-28T06:30:42.032Z,92854.09
2022-10-28T06:33:08.752Z,92851.41
2022-10-28T06:35:35.336Z,92851.63
2022-10-28T06:38:07.239Z,92848.41
2022-10-28T06:40:35.852Z,92850.31
2022-10-28T06:43:04.125Z,92853.50
2022-10-28T06:45:31.884Z,92845.13
2022-10-28T06:48:01.604Z,92850.97
2022-10-28T06:50:28.605Z,92855.41
2022-10-28T06:52:56.821Z,92856.03
2022-10-28T06:55:24.476Z,92855.63
2022-10-28T06:57:51.365Z,92843.78
2022-10-28T07:00:18.699Z,92849.22
2022-10-28T07:02:45.438Z,92840.00
2022-10-28T07:05:12.250Z,92848.03
2022-10-28T07:07:38.926Z,92839.75
2022-10-28T07:10:06.064Z,92830.06
2022-10-28T07:12:32.803Z,92837.31
2022-10-28T07:14:59.498Z,92837.75
2022-10-28T07:17:26.501Z,92840.50
2022-10-28T07:19:53.149Z,92838.50
2022-10-28T07:22:22.405Z,92827.06
2022-10-28T07:24:52.034Z,92830.81
2022-10-28T07:27:18.720Z,92835.25
2022-10-28T07:29:45.299Z,92832.38
2022-10-28T07:32:11.943Z,92838.72
2022-10-28T07:34:38.515Z,92829.72
2022-10-28T07:37:06.192Z,92835.91
2022-10-28T07:39:33.055Z,92834.84
2022-10-28T07:42:01.418Z,92835.81
2022-10-28T07:44:28.042Z,92837.56
2022-10-28T07:46:57.941Z,92839.75
2022-10-28T07:49:25.171Z,92832.41
2022-10-28T07:51:52.094Z,92833.50
2022-10-28T07:54:18.815Z,92826.44
2022-10-28T07:56:45.394Z,92823.00
2022-10-28T07:59:12.039Z,92818.75
2022-10-28T08:01:38.736Z,92819.97
2022-10-28T08:04:05.449Z,92817.31
2022-10-28T08:06:33.509Z,92822.41
2022-10-28T08:09:00.139Z,92823.31
2022-10-28T08:11:26.837Z,92815.41
2022-10-28T08:13:53.702Z,92821.38
2022-10-28T08:16:20.260Z,92807.88
2022-10-28T08:18:47.035Z,92810.13
2022-10-28T08:21:13.936Z,92811.66
2022-10-28T08:23:41.600Z,92807.25
2022-10-28T08:26:08.489Z,92806.81
2022-10-28T08:28:35.092Z,92809.31
2022-10-28T08:31:10.488Z,92811.88
2022-10-28T08:33:38.208Z,92806.19
2022-10-28T08:36:05.666Z,92812.06
2022-10-28T08:38:32.307Z,92813.25
2022-10-28T08:41:01.736Z,92810.47
2022-10-28T08:44:03.460Z,92805.44
2022-10-28T08:46:52.451Z,92807.34
2022-10-28T08:49:20.992Z,92802.25
2022-10-28T08:52:06.178Z,92809.03
2022-10-28T08:54:37.485Z,92797.16
2022-10-28T08:57:05.494Z,92797.44
2022-10-28T08:59:40.246Z,92796.06
2022-10-28T09:02:12.814Z,92804.06
2022-10-28T09:04:40.678Z,92804.72
2022-10-28T09:07:26.026Z,92808.38
2022-10-28T09:09:52.883Z,92803.06
2022-10-28T09:12:38.360Z,92795.72
2022-10-28T09:15:07.646Z,92797.28
2022-10-28T09:17:44.566Z,92789.16
2022-10-28T09:20:39.354Z,92786.50
2022-10-28T09:23:14.068Z,92788.06
2022-10-28T09:26:08.429Z,92787.44
2022-10-28T09:28:46.244Z,92793.66
2022-10-28T09:31:37.654Z,92788.63
2022-10-28T09:34:44.321Z,92776.78
2022-10-28T09:37:28.911Z,92784.75
2022-10-28T09:40:13.683Z,92776.03
2022-10-28T09:45:21.804Z,92766.09
2022-10-28T09:48:17.309Z,92761.63
2022-10-28T09:50:44.754Z,92761.56
2022-10-28T09:53:16.661Z,92760.97
2022-10-28T09:55:43.419Z,92760.16
2022-10-28T09:58:11.674Z,92748.13
2022-10-28T10:00:38.462Z,92751.22
2022-10-28T10:03:05.192Z,92751.41
2022-10-28T10:05:33.218Z,92748.41
2022-10-28T10:08:04.436Z,92750.63
2022-10-28T10:10:44.849Z,92746.59
2022-10-28T10:13:11.406Z,92752.31
2022-10-28T10:15:45.969Z,92746.31
2022-10-28T10:18:19.086Z,92733.69
2022-10-28T10:21:00.464Z,92739.25
2022-10-28T10:23:34.857Z,92738.03
2022-10-28T10:26:13.020Z,92737.09
2022-10-28T10:28:47.836Z,92731.28
2022-10-28T10:31:26.425Z,92723.69
2022-10-28T10:33:54.101Z,92728.63
2022-10-28T10:36:23.642Z,92720.47
2022-10-28T10:38:57.284Z,92717.63
2022-10-28T10:41:43.613Z,92720.97
2022-10-28T10:44:22.425Z,92715.88
2022-10-28T10:46:55.123Z,92717.81
2022-10-28T10:49:21.745Z,92719.34
2022-10-28T10:51:52.574Z,92709.03
2022-10-28T10:54:19.275Z,92709.19
2022-10-28T10:56:45.894Z,92709.53
2022-10-28T10:59:25.793Z,92700.84
2022-10-28T11:01:52.679Z,92696.50
2022-10-28T11:04:20.077Z,92701.75
2022-10-28T11:06:50.279Z,92696.50
2022-10-28T11:09:30.749Z,92698.41
2022-10-28T11:11:57.411Z,92686.50
2022-10-28T11:14:31.477Z,92696.19
2022-10-28T11:16:59.455Z,92689.97
2022-10-28T11:19:36.288Z,92694.41
2022-10-28T11:22:05.742Z,92684.91
2022-10-28T11:24:35.397Z,92686.13
2022-10-28T11:27:21.113Z,92682.94
2022-10-28T11:29:47.822Z,92688.03
2022-10-28T11:32:17.392Z,92682.47
2022-10-28T11:35:10.879Z,92674.69
2022-10-28T11:37:51.402Z,92679.28
2022-10-28T11:40:32.602Z,92674.56
2022-10-28T11:43:08.295Z,92674.16
2022-10-28T11:45:56.448Z,92666.13
2022-10-28T11:48:33.286Z,92669.16
2022-10-28T11:51:39.384Z,92667.69
2022-10-28T11:54:33.498Z,92668.19
2022-10-28T11:57:09.670Z,92657.00
2022-10-28T11:59:57.164Z,92661.06
2022-10-28T12:02:53.357Z,92663.03
2022-10-28T12:06:02.331Z,92658.59
2022-10-28T12:08:37.802Z,92655.66
2022-10-28T12:11:28.782Z,92638.31
2022-10-28T12:13:55.487Z,92648.88
2022-10-28T12:16:41.926Z,92653.34
2022-10-28T12:19:15.697Z,92645.53
2022-10-28T12:21:45.611Z,92643.97
2022-10-28T12:24:17.223Z,92644.50
2022-10-28T12:26:52.252Z,92651.97
2022-10-28T12:29:33.511Z,92640.31
2022-10-28T12:32:08.095Z,92641.44
2022-10-28T12:37:13.425Z,92636.22
2022-10-28T12:39:50.946Z,92628.66
2022-10-28T12:42:27.728Z,92632.84
2022-10-28T12:44:54.700Z,92624.25
2022-10-28T12:47:43.265Z,92629.75
2022-10-28T12:50:34.514Z,92632.91
2022-10-28T12:53:04.135Z,92627.22
2022-10-28T12:55:52.861Z,92637.72
2022-10-28T12:58:27.215Z,92630.34
2022-10-28T13:01:10.219Z,92627.69
2022-10-28T13:03:37.181Z,92628.34
2022-10-28T13:06:31.497Z,92627.94
2022-10-28T13:09:13.051Z,92634.22
2022-10-28T13:11:58.759Z,92633.69
2022-10-28T13:14:51.430Z,92634.13
2022-10-28T13:17:34.035Z,92632.81
2022-10-28T13:20:19.464Z,92630.59
2022-10-28T13:22:53.257Z,92637.69
2022-10-28T13:25:38.473Z,92633.78
2022-10-28T13:28:05.140Z,92629.47
2022-10-28T13:30:35.303Z,92632.56
2022-10-28T13:33:05.350Z,92633.13
2022-10-28T13:35:32.061Z,92626.19
2022-10-28T13:37:58.877Z,92625.50
2022-10-28T13:40:31.764Z,92630.31
2022-10-28T13:42:58.798Z,92634.84
2022-10-28T13:45:48.469Z,92626.09
2022-10-28T13:48:30.496Z,92633.06
2022-10-28T13:51:08.946Z,92625.28
2022-10-28T13:53:45.606Z,92631.88
2022-10-28T13:56:37.008Z,92625.72
2022-10-28T13:59:26.871Z,92628.25
2022-10-28T14:02:32.659Z,92628.22
2022-10-28T14:05:00.782Z,92633.16
2022-10-28T14:07:30.225Z,92632.69
2022-10-28T14:10:20.278Z,92625.81
2022-10-28T14:12:50.087Z,92622.25
2022-10-28T14:15:24.885Z,92629.47
2022-10-28T14:18:09.697Z,92625.41
2022-10-28T14:20:48.624Z,92624.28
2022-10-28T14:23:21.212Z,92628.56
2022-10-28T14:25:50.574Z,92634.16
2022-10-28T14:28:32.013Z,92624.50
2022-10-28T14:31:11.499Z,92630.47
2022-10-28T14:33:40.346Z,92632.19
2022-10-28T14:36:19.499Z,92632.03
2022-10-28T14:39:04.515Z,92627.50
2022-10-28T14:41:34.111Z,92629.34
2022-10-28T14:44:37.977Z,92627.44
2022-10-28T14:47:46.406Z,92633.97
2022-10-28T14:50:24.800Z,92635.56
2022-10-28T14:52:51.579Z,92637.03
2022-10-28T14:55:26.834Z,92629.53
2022-10-28T14:57:53.939Z,92628.78
2022-10-28T15:00:22.010Z,92635.72
2022-10-28T15:02:48.594Z,92636.50
2022-10-28T15:05:16.610Z,92631.50
2022-10-28T15:07:43.242Z,92632.44
2022-10-28T15:10:16.177Z,92632.53
2022-10-28T15:12:46.426Z,92638.56
2022-10-28T15:15:20.583Z,92631.13
2022-10-28T15:17:47.282Z,92634.53
2022-10-28T15:20:41.979Z,92624.03
2022-10-28T15:23:19.422Z,92629.88
2022-10-28T15:25:46.271Z,92633.84
2022-10-28T15:28:13.267Z,92633.84
2022-10-28T15:30:45.824Z,92632.38
2022-10-28T15:33:20.975Z,92627.59
2022-10-28T15:35:47.542Z,92633.34
2022-10-28T15:38:32.105Z,92634.91
2022-10-28T15:40:58.714Z,92635.78
2022-10-28T15:43:26.754Z,92638.19
2022-10-28T15:45:53.401Z,92636.25
2022-10-28T15:48:23.638Z,92635.69
2022-10-28T15:51:27.438Z,92640.38
2022-10-28T15:53:55.220Z,92641.78
2022-10-28T15:56:22.834Z,92635.44
2022-10-28T15:58:59.425Z,92640.16
2022-10-28T16:01:30.879Z,92644.22
2022-10-28T16:03:57.652Z,92642.50
2022-10-28T16:06:32.036Z,92651.97
2022-10-28T16:08:59.385Z,92644.66
2022-10-28T16:11:26.211Z,92644.28
2022-10-28T16:13:52.855Z,92648.06
2022-10-28T16:16:27.122Z,92641.84
2022-10-28T16:19:07.866Z,92654.09
2022-10-28T16:21:34.715Z,92657.13
2022-10-28T16:24:01.436Z,92659.00
2022-10-28T16:26:28.587Z,92656.53
2022-10-28T16:28:55.225Z,92664.63
2022-10-28T16:31:22.962Z,92662.72
2022-10-28T16:33:49.673Z,92668.50
2022-10-28T16:36:16.391Z,92670.19
2022-10-28T16:38:42.995Z,92675.31
2022-10-28T16:41:16.984Z,92674.41
2022-10-28T16:43:43.669Z,92677.31
2022-10-28T16:46:11.764Z,92672.09
2022-10-28T16:48:38.359Z,92676.53
2022-10-28T16:51:06.522Z,92678.44
2022-10-28T16:53:33.159Z,92678.16
2022-10-28T16:55:59.917Z,92674.59
2022-10-28T16:58:27.419Z,92681.97
2022-10-28T17:00:54.516Z,92688.97
2022-10-28T17:03:21.365Z,92686.16
2022-10-28T17:05:48.188Z,92682.41
2022-10-28T17:08:14.875Z,92691.81
2022-10-28T17:10:41.783Z,92697.31
2022-10-28T17:13:15.045Z,92699.66
2022-10-28T17:15:42.445Z,92692.13
2022-10-28T17:18:10.295Z,92694.72
2022-10-28T17:20:36.985Z,92697.97
2022-10-28T17:23:06.864Z,92700.31
2022-10-28T17:25:33.662Z,92696.13
2022-10-28T17:28:00.379Z,92702.41
2022-10-28T17:30:27.054Z,92699.03
2022-10-28T17:32:53.993Z,92704.25
2022-10-28T17:35:21.253Z,92701.94
2022-10-28T17:37:48.027Z,92700.31
2022-10-28T17:40:14.900Z,92706.09
2022-10-28T17:42:41.492Z,92707.38
2022-10-28T17:45:09.310Z,92712.09
2022-10-28T17:47:36.018Z,92706.03
2022-10-28T17:50:02.719Z,92702.19
2022-10-28T17:52:32.819Z,92698.81
2022-10-28T17:55:02.187Z,92705.34
2022-10-28T17:57:28.763Z,92705.59
2022-10-28T17:59:55.465Z,92709.25
2022-10-28T18:02:22.194Z,92707.69
2022-10-28T18:04:48.933Z,92712.94
2022-10-28T18:07:15.627Z,92707.72
2022-10-28T18:09:42.345Z,92707.44
2022-10-28T18:12:09.949Z,92703.25
2022-10-28T18:14:36.566Z,92706.63
2022-10-28T18:17:03.228Z,92694.31
2022-10-28T18:19:29.887Z,92712.34
2022-10-28T18:21:56.530Z,92705.00
2022-10-28T18:24:25.950Z,92713.38
2022-10-28T18:26:53.900Z,92699.72
2022-10-28T18:29:20.594Z,92706.50
2022-10-28T18:31:47.354Z,92709.63
2022-10-28T18:34:14.134Z,92694.44
2022-10-28T18:36:40.778Z,92697.13
2022-10-28T18:39:07.674Z,92710.38
2022-10-28T18:41:38.008Z,92708.72
2022-10-28T18:44:05.257Z,92698.84
2022-10-28T18:46:34.493Z,92704.22
2022-10-28T18:51:33.410Z,92707.25
2022-10-28T18:54:00.082Z,92712.91
2022-10-28T18:56:29.350Z,92714.78
2022-10-28T18:58:56.888Z,92711.56
2022-10-28T19:01:27.951Z,92713.16
2022-10-28T19:03:56.149Z,92715.25
2022-10-28T19:06:23.278Z,92724.66
2022-10-28T19:08:51.530Z,92723.59
2022-10-28T19:11:18.389Z,92716.13
2022-10-28T19:13:45.073Z,92724.50
2022-10-28T19:18:39.611Z,92718.84
2022-10-28T19:21:15.979Z,92721.72
2022-10-28T19:23:43.088Z,92725.56
2022-10-28T19:26:10.719Z,92726.97
2022-10-28T19:28:39.436Z,92736.22
2022-10-28T19:31:08.283Z,92726.47
2022-10-28T19:33:35.395Z,92727.84
2022-10-28T19:36:03.714Z,92734.44
2022-10-28T19:38:34.840Z,92738.88
2022-10-28T19:41:02.878Z,92740.41
2022-10-28T19:43:29.550Z,92740.53
2022-10-28T19:46:05.619Z,92739.69
2022-10-28T19:48:32.932Z,92747.69
2022-10-28T19:51:00.104Z,92753.00
2022-10-28T19:53:26.764Z,92752.72
2022-10-28T19:56:00.526Z,92745.75
2022-10-28T19:58:27.801Z,92754.06
2022-10-28T20:01:04.638Z,92758.16
2022-10-28T20:03:34.429Z,92748.84
2022-10-28T20:06:09.235Z,92752.69
2022-10-28T20:08:36.860Z,92750.50
2022-10-28T20:11:07.904Z,92756.91
2022-10-28T20:13:35.253Z,92754.94
2022-10-28T20:16:06.908Z,92761.22
2022-10-28T20:18:33.903Z,92757.75
2022-10-28T20:21:05.307Z,92762.44
2022-10-28T20:23:32.409Z,92754.50
2022-10-28T20:25:59.709Z,92753.94
2022-10-28T20:28:26.625Z,92759.97
2022-10-28T20:31:04.114Z,92760.63
2022-10-28T20:33:30.921Z,92752.03
2022-10-28T20:35:57.705Z,92747.25
2022-10-28T20:38:24.518Z,92751.44
2022-10-28T20:40:52.755Z,92753.72
2022-10-28T20:43:20.362Z,92755.38
2022-10-28T20:45:56.317Z,92763.72
2022-10-28T20:48:23.015Z,92759.94
2022-10-28T20:50:50.957Z,92758.44
2022-10-28T20:53:17.738Z,92765.72
2022-10-28T20:55:47.765Z,92761.81
2022-10-28T20:58:14.446Z,92761.75
2022-10-28T21:00:41.073Z,92759.81
2022-10-28T21:03:07.904Z,92760.09
2022-10-28T21:05:34.602Z,92763.91
2022-10-28T21:08:01.317Z,92760.34
2022-10-28T21:10:28.017Z,92752.38
2022-10-28T21:12:55.442Z,92753.81
2022-10-28T21:15:22.589Z,92758.53
2022-10-28T21:17:49.227Z,92756.31
2022-10-28T21:20:15.884Z,92762.13
2022-10-28T21:22:42.503Z,92755.34
2022-10-28T21:25:09.365Z,92756.31
2022-10-28T21:27:36.187Z,92752.19
2022-10-28T21:30:03.018Z,92751.91
2022-10-28T21:32:29.678Z,92753.97
2022-10-28T21:34:56.245Z,92750.81
2022-10-28T21:37:22.889Z,92752.63
2022-10-28T21:39:52.936Z,92755.13
2022-10-28T21:42:21.395Z,92755.19
2022-10-28T21:44:48.223Z,92750.94
2022-10-28T21:47:14.868Z,92749.22
2022-10-28T21:49:41.567Z,92745.28
2022-10-28T21:52:08.249Z,92737.56
2022-10-28T21:54:34.982Z,92740.88
2022-10-28T21:57:01.835Z,92746.59
2022-10-28T21:59:28.548Z,92744.28
2022-10-28T22:01:55.310Z,92739.03
2022-10-28T22:04:21.983Z,92734.72
2022-10-28T22:09:20.087Z,92738.72
2022-10-28T22:11:46.701Z,92740.81
2022-10-28T22:14:13.353Z,92741.69
2022-10-28T22:16:40.007Z,92734.63
2022-10-28T22:19:07.881Z,92734.91
2022-10-28T22:21:36.202Z,92738.50
2022-10-28T22:24:02.913Z,92736.22
2022-10-28T22:26:30.002Z,92734.38
2022-10-28T22:28:56.628Z,92736.28
2022-10-28T22:31:25.588Z,92735.94
2022-10-28T22:33:52.262Z,92736.75
2022-10-28T22:36:20.719Z,92735.84
2022-10-28T22:38:47.376Z,92739.50
2022-10-28T22:41:17.192Z,92728.47
2022-10-28T22:43:45.174Z,92733.81
2022-10-28T22:46:12.016Z,92730.72
2022-10-28T22:48:38.792Z,92740.19
2022-10-28T22:51:05.566Z,92734.09
2022-10-28T22:53:32.244Z,92734.34
2022-10-28T22:55:58.966Z,92729.72
2022-10-28T22:58:26.276Z,92732.66
2022-10-28T23:00:52.833Z,92733.81
2022-10-28T23:03:19.754Z,92730.44
2022-10-28T23:05:46.360Z,92721.88
2022-10-28T23:08:14.988Z,92726.06
2022-10-28T23:10:41.694Z,92726.84
2022-10-28T23:13:11.446Z,92723.81
2022-10-28T23:15:38.114Z,92726.41
2022-10-28T23:18:04.827Z,92722.38
2022-10-28T23:20:31.513Z,92722.13
2022-10-28T23:22:58.072Z,92729.44
2022-10-28T23:25:24.683Z,92729.41
2022-10-28T23:27:51.313Z,92727.72
2022-10-28T23:30:18.066Z,92722.88
2022-10-28T23:32:44.683Z,92721.78
2022-10-28T23:35:11.369Z,92714.78
2022-10-28T23:37:38.017Z,92728.69
2022-10-28T23:40:05.403Z,92718.00
2022-10-28T23:42:32.119Z,92718.81
2022-10-28T23:44:58.673Z,92723.75
2022-10-28T23:47:25.358Z,92713.00
2022-10-28T23:49:52.889Z,92718.94
2022-10-28T23:52:19.669Z,92716.81
2022-10-28T23:54:46.233Z,92712.91
2022-10-28T23:57:12.935Z,92710.50
2022-10-28T23:59:39.566Z,92706.66
